createdAt,value
2022-11-17T00:02:26.231Z,12.65
2022-11-17T00:05:17.380Z,10.73
2022-11-17T00:08:07.315Z,12.30
2022-11-17T00:11:01.338Z,12.52
2022-11-17T00:14:17.259Z,9.38
2022-11-17T00:17:09.630Z,9.23
2022-11-17T00:20:18.109Z,12.73
2022-11-17T00:23:08.231Z,7.72
2022-11-17T00:25:58.207Z,13.02
2022-11-17T00:28:55.082Z,12.60
2022-11-17T00:32:04.036Z,12.48
2022-11-17T00:34:54.093Z,9.07
2022-11-17T00:38:02.514Z,9.93
2022-11-17T00:40:52.601Z,13.63
2022-11-17T00:43:42.496Z,11.60
2022-11-17T00:46:32.875Z,14.88
2022-11-17T00:49:25.264Z,10.10
2022-11-17T00:52:15.219Z,8.95
2022-11-17T00:55:05.927Z,11.43
2022-11-17T00:57:56.066Z,13.77
2022-11-17T01:00:49.095Z,11.32
2022-11-17T01:03:39.372Z,7.38
2022-11-17T01:06:34.970Z,9.77
2022-11-17T01:09:25.430Z,10.32
2022-11-17T01:12:15.288Z,10.02
2022-11-17T01:15:05.396Z,9.18
2022-11-17T01:17:55.174Z,8.68
2022-11-17T01:20:45.143Z,10.02
2022-11-17T01:23:36.544Z,11.73
2022-11-17T01:26:32.142Z,8.00
2022-11-17T01:29:21.943Z,8.10
2022-11-17T01:32:11.673Z,10.90
2022-11-17T01:35:01.540Z,8.20
2022-11-17T01:37:52.459Z,11.77
2022-11-17T01:40:42.276Z,7.78
2022-11-17T01:43:37.969Z,9.13
2022-11-17T01:46:33.055Z,7.57
2022-11-17T01:49:27.235Z,13.95
2022-11-17T01:52:17.808Z,8.38
2022-11-17T01:55:11.015Z,11.38
2022-11-17T01:58:08.757Z,9.20
2022-11-17T02:00:59.645Z,11.20
2022-11-17T02:03:50.164Z,8.05
2022-11-17T02:06:40.869Z,14.10
2022-11-17T02:09:33.181Z,11.02
2022-11-17T02:12:26.639Z,7.05
2022-11-17T02:15:16.659Z,10.93
2022-11-17T02:18:06.917Z,12.50
2022-11-17T02:21:18.727Z,6.40
2022-11-17T02:24:27.412Z,8.10
2022-11-17T02:27:35.704Z,8.77
2022-11-17T02:30:34.525Z,8.20
2022-11-17T02:34:06.026Z,9.73
2022-11-17T02:37:05.486Z,7.47
2022-11-17T02:40:09.382Z,5.10
2022-11-17T02:43:31.851Z,5.47
2022-11-17T02:46:24.472Z,7.93
2022-11-17T02:49:25.529Z,7.30
2022-11-17T02:52:17.804Z,5.40
2022-11-17T02:55:10.613Z,6.50
2022-11-17T02:58:00.512Z,4.13
2022-11-17T03:01:07.377Z,6.57
2022-11-17T03:04:34.409Z,7.57
2022-11-17T03:08:01.766Z,4.28
2022-11-17T03:10:58.489Z,7.15
2022-11-17T03:13:54.357Z,4.18
2022-11-17T03:17:05.486Z,4.60
2022-11-17T03:20:04.015Z,6.13
2022-11-17T03:23:04.253Z,5.30
2022-11-17T03:25:58.459Z,4.50
2022-11-17T03:28:48.633Z,5.60
2022-11-17T03:31:41.300Z,5.65
2022-11-17T03:34:38.216Z,5.85
2022-11-17T03:37:33.370Z,6.65
2022-11-17T03:40:27.790Z,5.68
2022-11-17T03:43:20.271Z,7.03
2022-11-17T03:46:14.149Z,6.28
2022-11-17T03:49:26.052Z,7.32
2022-11-17T03:52:16.258Z,4.60
2022-11-17T03:55:07.648Z,6.25
2022-11-17T03:58:04.978Z,6.43
2022-11-17T04:00:58.179Z,7.07
2022-11-17T04:03:48.633Z,5.80
2022-11-17T04:06:38.513Z,5.68
2022-11-17T04:09:28.421Z,11.60
2022-11-17T04:12:37.176Z,4.57
2022-11-17T04:15:56.248Z,7.95
2022-11-17T04:18:46.312Z,7.47
2022-11-17T04:21:36.391Z,8.63
2022-11-17T04:24:26.622Z,6.85
2022-11-17T04:27:35.164Z,6.45
2022-11-17T04:30:25.450Z,7.40
2022-11-17T04:33:15.160Z,10.15
2022-11-17T04:36:06.119Z,11.05
2022-11-17T04:38:58.481Z,9.93
2022-11-17T04:41:54.674Z,7.85
2022-11-17T04:44:45.071Z,7.38
2022-11-17T04:47:34.933Z,6.47
2022-11-17T04:50:24.817Z,5.97
2022-11-17T04:53:14.828Z,7.15
2022-11-17T04:56:05.362Z,6.95
2022-11-17T04:58:56.358Z,7.90
2022-11-17T05:01:46.708Z,12.15
2022-11-17T05:04:55.664Z,7.72
2022-11-17T05:07:45.885Z,8.80
2022-11-17T05:10:54.468Z,7.75
2022-11-17T05:13:44.674Z,9.77
2022-11-17T05:16:53.390Z,7.65
2022-11-17T05:19:46.541Z,8.82
2022-11-17T05:22:55.182Z,11.07
2022-11-17T05:25:45.166Z,6.72
2022-11-17T05:28:35.049Z,7.43
2022-11-17T05:31:26.379Z,10.73
2022-11-17T05:34:17.399Z,9.63
2022-11-17T05:37:07.428Z,11.25
2022-11-17T05:39:57.592Z,8.98
2022-11-17T05:42:48.484Z,10.27
2022-11-17T05:45:41.012Z,9.57
2022-11-17T05:48:31.436Z,10.80
2022-11-17T05:51:23.595Z,11.65
2022-11-17T05:54:13.540Z,11.70
2022-11-17T05:57:10.371Z,9.88
2022-11-17T06:00:04.464Z,12.10
2022-11-17T06:03:08.119Z,8.60
2022-11-17T06:05:59.582Z,12.93
2022-11-17T06:08:52.528Z,7.97
2022-11-17T06:11:42.915Z,11.77
2022-11-17T06:14:41.676Z,10.07
2022-11-17T06:17:39.691Z,9.60
2022-11-17T06:20:34.710Z,7.32
2022-11-17T06:23:28.733Z,9.52
2022-11-17T06:26:18.759Z,7.88
2022-11-17T06:29:10.883Z,8.30
2022-11-17T06:32:01.433Z,7.07
2022-11-17T06:34:55.656Z,6.72
2022-11-17T06:37:46.640Z,9.07
2022-11-17T06:40:37.136Z,7.32
2022-11-17T06:43:27.122Z,5.28
2022-11-17T06:46:17.513Z,4.65
2022-11-17T06:49:07.998Z,4.70
2022-11-17T06:51:57.990Z,4.38
2022-11-17T06:54:48.041Z,3.42
2022-11-17T06:57:38.141Z,7.65
2022-11-17T07:00:29.512Z,6.75
2022-11-17T07:03:19.543Z,7.13
2022-11-17T07:06:10.888Z,6.38
2022-11-17T07:09:00.561Z,5.68
2022-11-17T07:11:50.557Z,4.60
2022-11-17T07:14:40.996Z,7.45
2022-11-17T07:17:32.017Z,10.05
2022-11-17T07:20:22.053Z,7.88
2022-11-17T07:23:12.378Z,4.57
2022-11-17T07:26:03.468Z,6.18
2022-11-17T07:28:53.520Z,10.77
2022-11-17T07:31:43.439Z,7.28
2022-11-17T07:34:33.509Z,6.95
2022-11-17T07:37:23.528Z,4.28
2022-11-17T07:40:13.767Z,7.00
2022-11-17T07:43:03.663Z,5.50
2022-11-17T07:45:54.846Z,4.07
2022-11-17T07:48:45.000Z,5.85
2022-11-17T07:51:34.882Z,3.60
2022-11-17T07:54:25.460Z,5.57
2022-11-17T07:57:15.347Z,4.82
2022-11-17T08:00:06.168Z,4.65
2022-11-17T08:03:04.142Z,7.65
2022-11-17T08:05:54.237Z,4.68
2022-11-17T08:08:44.283Z,5.63
2022-11-17T08:11:34.528Z,3.22
2022-11-17T08:14:24.428Z,5.88
2022-11-17T08:17:14.375Z,9.15
2022-11-17T08:20:05.198Z,5.85
2022-11-17T08:22:55.480Z,9.07
2022-11-17T08:25:45.606Z,5.63
2022-11-17T08:28:36.590Z,5.60
2022-11-17T08:31:26.648Z,5.47
2022-11-17T08:34:16.595Z,6.53
2022-11-17T08:37:06.424Z,5.25
2022-11-17T08:39:56.313Z,6.10
2022-11-17T08:42:47.333Z,5.70
2022-11-17T08:45:37.144Z,3.90
2022-11-17T08:48:27.061Z,5.55
2022-11-17T08:51:16.957Z,1.80
2022-11-17T08:54:06.793Z,4.30
2022-11-17T08:56:58.186Z,3.72
2022-11-17T08:59:48.749Z,3.80
2022-11-17T09:02:38.648Z,2.92
2022-11-17T09:05:28.715Z,2.65
2022-11-17T09:11:28.953Z,5.03
2022-11-17T09:14:18.969Z,2.30
2022-11-17T09:17:09.588Z,4.57
2022-11-17T09:19:59.889Z,2.60
2022-11-17T09:22:49.728Z,2.88
2022-11-17T09:25:39.853Z,2.17
2022-11-17T09:28:29.856Z,1.23
2022-11-17T09:31:21.415Z,3.70
2022-11-17T09:34:11.623Z,1.90
2022-11-17T09:37:02.123Z,1.65
2022-11-17T09:39:52.375Z,3.13
2022-11-17T09:42:43.265Z,2.88
2022-11-17T09:45:38.616Z,1.17
2022-11-17T09:48:41.902Z,4.65
2022-11-17T09:51:36.910Z,3.35
2022-11-17T09:54:35.516Z,3.92
2022-11-17T09:57:31.073Z,5.15
2022-11-17T10:00:23.077Z,5.68
2022-11-17T10:03:22.466Z,1.05
2022-11-17T10:06:17.498Z,5.07
2022-11-17T10:09:29.507Z,1.67
2022-11-17T10:12:21.979Z,1.95
2022-11-17T10:15:25.907Z,4.18
2022-11-17T10:18:17.033Z,3.83
2022-11-17T10:21:09.080Z,5.38
2022-11-17T10:23:59.527Z,11.20
2022-11-17T10:26:49.588Z,5.07
2022-11-17T10:29:39.796Z,3.55
2022-11-17T10:32:32.933Z,8.07
2022-11-17T10:35:30.325Z,4.53
2022-11-17T10:38:29.408Z,9.30
2022-11-17T10:41:32.850Z,5.63
2022-11-17T10:44:28.604Z,5.57
2022-11-17T10:47:30.699Z,7.95
2022-11-17T10:50:25.851Z,4.90
2022-11-17T10:53:23.056Z,5.72
2022-11-17T10:56:19.809Z,2.78
2022-11-17T10:59:09.698Z,9.52
2022-11-17T11:02:31.280Z,2.10
2022-11-17T11:05:21.245Z,7.88
2022-11-17T11:08:21.984Z,5.10
2022-11-17T11:11:36.258Z,7.25
2022-11-17T11:14:44.237Z,3.95
2022-11-17T11:17:37.128Z,5.50
2022-11-17T11:20:44.476Z,4.18
2022-11-17T11:23:34.302Z,12.40
2022-11-17T11:26:32.993Z,4.40
2022-11-17T11:29:44.144Z,7.43
2022-11-17T11:32:41.147Z,3.75
2022-11-17T11:35:43.172Z,4.18
2022-11-17T11:38:45.358Z,4.10
2022-11-17T11:42:29.893Z,2.90
2022-11-17T11:45:38.935Z,6.40
2022-11-17T11:48:36.519Z,5.57
2022-11-17T11:51:36.631Z,5.30
2022-11-17T11:54:40.544Z,4.80
2022-11-17T11:57:43.435Z,4.40
2022-11-17T12:00:35.852Z,4.45
2022-11-17T12:04:11.228Z,6.63
2022-11-17T12:07:07.842Z,4.15
2022-11-17T12:10:40.841Z,4.28
2022-11-17T12:13:31.226Z,3.70
2022-11-17T12:16:32.058Z,4.30
2022-11-17T12:19:44.195Z,4.63
2022-11-17T12:22:44.484Z,1.45
2022-11-17T12:25:36.599Z,4.43
2022-11-17T12:28:41.138Z,5.18
2022-11-17T12:31:42.789Z,3.30
2022-11-17T12:34:37.395Z,6.55
2022-11-17T12:37:27.573Z,4.78
2022-11-17T12:40:37.902Z,3.60
2022-11-17T12:43:29.510Z,3.22
2022-11-17T12:46:27.334Z,6.03
2022-11-17T12:49:31.846Z,6.22
2022-11-17T12:52:52.577Z,2.80
2022-11-17T12:56:12.472Z,4.70
2022-11-17T12:59:30.553Z,8.73
2022-11-17T13:02:32.121Z,8.80
2022-11-17T13:05:24.824Z,8.38
2022-11-17T13:08:14.917Z,5.18
2022-11-17T13:11:11.920Z,6.03
2022-11-17T13:14:09.382Z,7.00
2022-11-17T13:17:01.154Z,7.72
2022-11-17T13:19:59.374Z,7.85
2022-11-17T13:23:06.472Z,4.97
2022-11-17T13:26:09.427Z,4.72
2022-11-17T13:29:05.652Z,7.82
2022-11-17T13:32:16.044Z,4.65
2022-11-17T13:35:19.793Z,6.40
2022-11-17T13:38:20.261Z,6.75
2022-11-17T13:41:10.505Z,5.07
2022-11-17T13:44:01.290Z,5.75
2022-11-17T13:46:51.227Z,5.82
2022-11-17T13:49:41.243Z,5.50
2022-11-17T13:52:41.987Z,6.65
2022-11-17T13:55:35.773Z,6.70
2022-11-17T13:58:38.173Z,11.15
2022-11-17T14:01:29.606Z,7.03
2022-11-17T14:04:23.825Z,8.65
2022-11-17T14:07:30.044Z,7.80
2022-11-17T14:10:20.130Z,8.85
2022-11-17T14:13:22.159Z,9.77
2022-11-17T14:16:25.711Z,8.98
2022-11-17T14:19:15.799Z,5.10
2022-11-17T14:22:08.900Z,9.85
2022-11-17T14:24:59.292Z,7.50
2022-11-17T14:27:53.204Z,6.75
2022-11-17T14:30:46.969Z,9.57
2022-11-17T14:33:37.211Z,7.07
2022-11-17T14:36:27.604Z,8.32
2022-11-17T14:39:18.263Z,8.18
2022-11-17T14:42:10.981Z,7.05
2022-11-17T14:45:01.372Z,8.30
2022-11-17T14:47:51.319Z,11.70
2022-11-17T14:50:41.226Z,8.60
2022-11-17T14:53:31.032Z,12.02
2022-11-17T14:56:23.635Z,10.65
2022-11-17T14:59:13.840Z,6.50
2022-11-17T15:02:04.272Z,12.93
2022-11-17T15:04:54.704Z,10.73
2022-11-17T15:07:45.169Z,11.32
2022-11-17T15:10:35.510Z,14.55
2022-11-17T15:13:25.697Z,8.98
2022-11-17T15:16:16.267Z,9.18
2022-11-17T15:19:06.742Z,10.93
2022-11-17T15:21:56.620Z,10.27
2022-11-17T15:24:47.213Z,11.32
2022-11-17T15:27:37.338Z,9.18
2022-11-17T15:30:27.330Z,12.02
2022-11-17T15:33:17.722Z,14.15
2022-11-17T15:36:10.161Z,13.57
2022-11-17T15:39:00.029Z,12.23
2022-11-17T15:41:50.728Z,10.50
2022-11-17T15:44:40.778Z,7.97
2022-11-17T15:47:30.936Z,13.85
2022-11-17T15:50:20.765Z,12.23
2022-11-17T15:53:11.086Z,8.95
2022-11-17T15:56:23.486Z,10.90
2022-11-17T15:59:13.618Z,13.32
2022-11-17T16:02:10.304Z,14.68
2022-11-17T16:05:00.260Z,13.50
2022-11-17T16:07:50.281Z,11.75
2022-11-17T16:10:40.440Z,12.88
2022-11-17T16:13:31.028Z,12.02
2022-11-17T16:16:22.032Z,17.85
2022-11-17T16:19:12.068Z,15.40
2022-11-17T16:22:01.979Z,8.55
2022-11-17T16:24:51.748Z,9.57
2022-11-17T16:27:41.626Z,9.38
2022-11-17T16:30:35.276Z,9.82
2022-11-17T16:33:26.261Z,10.52
2022-11-17T16:36:17.868Z,11.15
2022-11-17T16:39:11.676Z,14.82
2022-11-17T16:42:01.660Z,8.37
2022-11-17T16:44:51.888Z,15.93
2022-11-17T16:47:42.060Z,12.07
2022-11-17T16:50:36.222Z,13.38
2022-11-17T16:53:26.165Z,15.15
2022-11-17T16:56:16.448Z,13.65
2022-11-17T16:59:07.162Z,16.98
2022-11-17T17:01:57.284Z,21.25
2022-11-17T17:04:47.194Z,15.60
2022-11-17T17:07:37.511Z,12.40
2022-11-17T17:10:27.725Z,11.65
2022-11-17T17:13:17.504Z,8.07
2022-11-17T17:16:13.786Z,12.30
2022-11-17T17:19:06.100Z,9.13
2022-11-17T17:21:56.271Z,15.60
2022-11-17T17:24:46.617Z,20.95
2022-11-17T17:27:38.883Z,14.10
2022-11-17T17:30:29.151Z,16.45
2022-11-17T17:33:19.040Z,16.17
2022-11-17T17:36:12.327Z,21.73
2022-11-17T17:39:02.453Z,19.33
2022-11-17T17:41:56.571Z,22.50
2022-11-17T17:44:46.857Z,14.55
2022-11-17T17:47:36.828Z,15.27
2022-11-17T17:50:26.751Z,18.75
2022-11-17T17:53:16.817Z,20.05
2022-11-17T17:56:12.139Z,13.98
2022-11-17T17:59:02.358Z,20.02
2022-11-17T18:01:53.227Z,14.88
2022-11-17T18:04:43.051Z,19.75
2022-11-17T18:07:33.106Z,17.63
2022-11-17T18:10:23.355Z,14.77
2022-11-17T18:13:13.153Z,18.05
2022-11-17T18:16:05.195Z,15.05
2022-11-17T18:18:58.282Z,18.40
2022-11-17T18:21:48.178Z,19.75
2022-11-17T18:24:38.190Z,11.02
2022-11-17T18:27:28.105Z,10.13
2022-11-17T18:30:18.131Z,17.92
2022-11-17T18:33:08.230Z,24.73
2022-11-17T18:36:09.175Z,21.35
2022-11-17T18:38:59.473Z,22.48
2022-11-17T18:41:49.612Z,21.00
2022-11-17T18:44:39.860Z,12.40
2022-11-17T18:47:29.860Z,15.45
2022-11-17T18:50:20.075Z,11.40
2022-11-17T18:53:10.121Z,12.40
2022-11-17T18:56:06.004Z,17.23
2022-11-17T18:58:56.537Z,14.15
2022-11-17T19:01:47.023Z,15.63
2022-11-17T19:04:37.023Z,14.05
2022-11-17T19:07:27.007Z,14.73
2022-11-17T19:10:17.481Z,12.35
2022-11-17T19:13:07.207Z,11.68
2022-11-17T19:16:08.334Z,13.18
2022-11-17T19:18:59.258Z,9.65
2022-11-17T19:21:49.531Z,26.48
2022-11-17T19:24:40.669Z,30.77
2022-11-17T19:27:30.805Z,20.60
2022-11-17T19:30:20.646Z,12.77
2022-11-17T19:33:10.597Z,14.30
2022-11-17T19:36:15.439Z,15.35
2022-11-17T19:39:06.019Z,19.10
2022-11-17T19:41:56.052Z,19.73
2022-11-17T19:44:46.207Z,17.25
2022-11-17T19:47:37.432Z,12.13
2022-11-17T19:50:28.564Z,13.75
2022-11-17T19:53:18.730Z,11.82
2022-11-17T19:56:09.213Z,24.33
2022-11-17T19:58:59.774Z,7.82
2022-11-17T20:01:50.001Z,12.18
2022-11-17T20:04:40.518Z,15.85
2022-11-17T20:07:30.807Z,14.50
2022-11-17T20:10:21.224Z,13.93
2022-11-17T20:13:11.785Z,17.85
2022-11-17T20:16:07.521Z,23.83
2022-11-17T20:19:02.388Z,9.25
2022-11-17T20:21:55.699Z,13.93
2022-11-17T20:24:45.965Z,12.53
2022-11-17T20:27:36.186Z,8.82
2022-11-17T20:30:26.295Z,9.95
2022-11-17T20:33:16.845Z,5.20
2022-11-17T20:36:08.628Z,13.07
2022-11-17T20:39:01.234Z,10.90
2022-11-17T20:41:51.396Z,8.20
2022-11-17T20:44:41.241Z,9.10
2022-11-17T20:47:31.292Z,4.13
2022-11-17T20:50:21.373Z,5.00
2022-11-17T20:53:11.775Z,4.30
2022-11-17T20:56:04.377Z,3.42
2022-11-17T20:58:57.371Z,10.30
2022-11-17T21:01:49.389Z,2.27
2022-11-17T21:04:39.615Z,2.53
2022-11-17T21:07:29.669Z,6.50
2022-11-17T21:10:20.042Z,4.93
2022-11-17T21:13:09.861Z,2.22
2022-11-17T21:16:08.069Z,6.82
2022-11-17T21:18:58.806Z,2.97
2022-11-17T21:21:51.506Z,3.22
2022-11-17T21:24:42.105Z,10.15
2022-11-17T21:27:32.445Z,3.08
2022-11-17T21:30:22.619Z,2.40
2022-11-17T21:33:14.957Z,1.10
2022-11-17T21:36:07.884Z,5.07
2022-11-17T21:38:58.567Z,7.17
2022-11-17T21:41:48.420Z,1.98
2022-11-17T21:44:39.212Z,3.03
2022-11-17T21:47:29.375Z,3.05
2022-11-17T21:50:19.516Z,2.70
2022-11-17T21:53:09.649Z,1.17
2022-11-17T21:56:01.418Z,0.40
2022-11-17T21:58:57.160Z,1.38
2022-11-17T22:01:48.054Z,2.20
2022-11-17T22:04:38.916Z,2.20
2022-11-17T22:07:29.399Z,29.75
2022-11-17T22:10:19.694Z,71.13
2022-11-17T22:13:10.372Z,3.03
2022-11-17T22:16:14.391Z,3.00
2022-11-17T22:19:05.010Z,6.53
2022-11-17T22:21:55.258Z,2.95
2022-11-17T22:24:49.610Z,1.00
2022-11-17T22:27:40.296Z,1.83
2022-11-17T22:30:30.605Z,3.78
2022-11-17T22:33:21.890Z,3.28
2022-11-17T22:36:11.993Z,1.40
2022-11-17T22:39:02.037Z,1.55
2022-11-17T22:41:52.230Z,2.35
2022-11-17T22:44:42.271Z,0.70
2022-11-17T22:47:32.369Z,1.98
2022-11-17T22:50:22.354Z,1.77
2022-11-17T22:53:12.260Z,4.95
2022-11-17T22:56:04.497Z,3.40
2022-11-17T22:58:59.440Z,1.90
2022-11-17T23:01:50.121Z,0.65
2022-11-17T23:04:40.322Z,1.38
2022-11-17T23:07:30.878Z,6.18
2022-11-17T23:10:21.455Z,1.63
2022-11-17T23:13:11.331Z,1.45
2022-11-17T23:16:05.176Z,1.90
2022-11-17T23:21:45.827Z,1.10
2022-11-17T23:24:36.208Z,5.28
2022-11-17T23:27:26.305Z,5.63
2022-11-17T23:30:16.876Z,1.48
2022-11-17T23:33:06.851Z,1.83
2022-11-17T23:35:57.764Z,4.25
2022-11-17T23:38:49.004Z,1.10
2022-11-17T23:41:39.283Z,3.20
2022-11-17T23:44:29.213Z,0.63
2022-11-17T23:47:19.229Z,2.25
2022-11-17T23:50:09.330Z,0.98
2022-11-17T23:52:59.394Z,0.82
2022-11-17T23:55:57.315Z,1.75
2022-11-17T23:58:47.759Z,1.02
